sensor_id;sensor_type;location;lat;lon;timestamp;temperature;humidity
76857;DHT22;69705;44.686;37.628;2023-08-21T00:00:51;22.38;57.89
76857;DHT22;69705;44.686;37.628;2023-08-21T00:03:18;22.36;57.87
76857;DHT22;69705;44.686;37.628;2023-08-21T00:05:45;22.34;57.86
76857;DHT22;69705;44.686;37.628;2023-08-21T00:08:11;22.27;57.99
76857;DHT22;69705;44.686;37.628;2023-08-21T00:10:38;22.25;58.35
76857;DHT22;69705;44.686;37.628;2023-08-21T00:13:07;22.23;58.64
76857;DHT22;69705;44.686;37.628;2023-08-21T00:15:34;22.21;58.71
76857;DHT22;69705;44.686;37.628;2023-08-21T00:18:01;22.18;59.08
76857;DHT22;69705;44.686;37.628;2023-08-21T00:20:28;22.12;58.98
76857;DHT22;69705;44.686;37.628;2023-08-21T00:22:55;22.11;58.86
76857;DHT22;69705;44.686;37.628;2023-08-21T00:25:22;22.07;58.86
76857;DHT22;69705;44.686;37.628;2023-08-21T00:27:49;22.02;58.99
76857;DHT22;69705;44.686;37.628;2023-08-21T00:30:16;22.03;59.35
76857;DHT22;69705;44.686;37.628;2023-08-21T00:32:43;21.99;59.03
76857;DHT22;69705;44.686;37.628;2023-08-21T00:35:10;21.95;59.61
76857;DHT22;69705;44.686;37.628;2023-08-21T00:37:37;21.88;59.93
76857;DHT22;69705;44.686;37.628;2023-08-21T00:40:04;21.82;60.54
76857;DHT22;69705;44.686;37.628;2023-08-21T00:42:34;21.78;60.42
76857;DHT22;69705;44.686;37.628;2023-08-21T00:45:01;21.74;60.24
76857;DHT22;69705;44.686;37.628;2023-08-21T00:47:28;21.72;59.93
76857;DHT22;69705;44.686;37.628;2023-08-21T00:49:55;21.70;59.86
76857;DHT22;69705;44.686;37.628;2023-08-21T00:52:22;21.70;60.10
76857;DHT22;69705;44.686;37.628;2023-08-21T00:54:50;21.69;60.09
76857;DHT22;69705;44.686;37.628;2023-08-21T00:57:17;21.68;60.15
76857;DHT22;69705;44.686;37.628;2023-08-21T00:59:44;21.68;59.92
76857;DHT22;69705;44.686;37.628;2023-08-21T01:02:11;21.70;59.44
76857;DHT22;69705;44.686;37.628;2023-08-21T01:04:39;21.74;59.28
76857;DHT22;69705;44.686;37.628;2023-08-21T01:07:06;21.79;58.90
76857;DHT22;69705;44.686;37.628;2023-08-21T01:09:45;21.77;59.29
76857;DHT22;69705;44.686;37.628;2023-08-21T01:12:20;21.74;59.80
76857;DHT22;69705;44.686;37.628;2023-08-21T01:14:59;21.72;60.20
76857;DHT22;69705;44.686;37.628;2023-08-21T01:17:28;21.65;60.70
76857;DHT22;69705;44.686;37.628;2023-08-21T01:19:56;21.63;60.18
76857;DHT22;69705;44.686;37.628;2023-08-21T01:22:27;21.58;60.22
76857;DHT22;69705;44.686;37.628;2023-08-21T01:24:55;21.59;60.77
76857;DHT22;69705;44.686;37.628;2023-08-21T01:27:22;21.53;60.75
76857;DHT22;69705;44.686;37.628;2023-08-21T01:29:49;21.52;60.28
76857;DHT22;69705;44.686;37.628;2023-08-21T01:34:44;21.61;60.09
76857;DHT22;69705;44.686;37.628;2023-08-21T01:37:12;21.55;60.63
76857;DHT22;69705;44.686;37.628;2023-08-21T01:39:40;21.50;61.02
76857;DHT22;69705;44.686;37.628;2023-08-21T01:42:07;21.45;60.35
76857;DHT22;69705;44.686;37.628;2023-08-21T01:44:33;21.48;61.28
76857;DHT22;69705;44.686;37.628;2023-08-21T01:47:02;21.39;61.09
76857;DHT22;69705;44.686;37.628;2023-08-21T01:49:29;21.37;61.47
76857;DHT22;69705;44.686;37.628;2023-08-21T01:51:56;21.39;61.23
76857;DHT22;69705;44.686;37.628;2023-08-21T01:54:25;21.37;61.21
76857;DHT22;69705;44.686;37.628;2023-08-21T01:56:52;21.24;61.92
76857;DHT22;69705;44.686;37.628;2023-08-21T01:59:19;21.21;61.91
76857;DHT22;69705;44.686;37.628;2023-08-21T02:01:46;21.19;61.94
76857;DHT22;69705;44.686;37.628;2023-08-21T02:04:13;21.20;61.31
76857;DHT22;69705;44.686;37.628;2023-08-21T02:06:41;21.27;61.32
76857;DHT22;69705;44.686;37.628;2023-08-21T02:09:10;21.29;60.67
76857;DHT22;69705;44.686;37.628;2023-08-21T02:11:37;21.34;60.31
76857;DHT22;69705;44.686;37.628;2023-08-21T02:14:04;21.35;60.59
76857;DHT22;69705;44.686;37.628;2023-08-21T02:16:32;21.31;60.57
76857;DHT22;69705;44.686;37.628;2023-08-21T02:18:59;21.29;60.73
76857;DHT22;69705;44.686;37.628;2023-08-21T02:21:26;21.22;61.18
76857;DHT22;69705;44.686;37.628;2023-08-21T02:23:52;21.19;61.59
76857;DHT22;69705;44.686;37.628;2023-08-21T02:26:20;21.20;61.57
76857;DHT22;69705;44.686;37.628;2023-08-21T02:28:47;21.15;61.62
76857;DHT22;69705;44.686;37.628;2023-08-21T02:31:14;21.18;61.02
76857;DHT22;69705;44.686;37.628;2023-08-21T02:33:41;21.13;61.63
76857;DHT22;69705;44.686;37.628;2023-08-21T02:36:08;21.15;61.25
76857;DHT22;69705;44.686;37.628;2023-08-21T02:38:35;21.10;60.28
76857;DHT22;69705;44.686;37.628;2023-08-21T02:41:24;21.18;60.57
76857;DHT22;69705;44.686;37.628;2023-08-21T02:43:51;21.20;60.49
76857;DHT22;69705;44.686;37.628;2023-08-21T02:46:17;21.29;59.28
76857;DHT22;69705;44.686;37.628;2023-08-21T02:48:44;21.27;60.31
76857;DHT22;69705;44.686;37.628;2023-08-21T02:51:11;21.30;59.83
76857;DHT22;69705;44.686;37.628;2023-08-21T02:53:38;21.32;60.30
76857;DHT22;69705;44.686;37.628;2023-08-21T02:56:05;21.35;59.61
76857;DHT22;69705;44.686;37.628;2023-08-21T02:58:32;21.42;59.96
76857;DHT22;69705;44.686;37.628;2023-08-21T03:00:59;21.36;61.01
76857;DHT22;69705;44.686;37.628;2023-08-21T03:03:26;21.40;59.64
76857;DHT22;69705;44.686;37.628;2023-08-21T03:05:52;21.46;59.53
76857;DHT22;69705;44.686;37.628;2023-08-21T03:08:19;21.52;59.04
76857;DHT22;69705;44.686;37.628;2023-08-21T03:10:46;21.53;58.87
76857;DHT22;69705;44.686;37.628;2023-08-21T03:13:12;21.54;59.55
76857;DHT22;69705;44.686;37.628;2023-08-21T03:15:39;21.58;59.36
76857;DHT22;69705;44.686;37.628;2023-08-21T03:18:05;21.61;59.06
76857;DHT22;69705;44.686;37.628;2023-08-21T03:20:32;21.65;59.23
76857;DHT22;69705;44.686;37.628;2023-08-21T03:22:59;21.68;58.85
76857;DHT22;69705;44.686;37.628;2023-08-21T03:25:27;21.68;59.06
76857;DHT22;69705;44.686;37.628;2023-08-21T03:27:54;21.72;58.93
76857;DHT22;69705;44.686;37.628;2023-08-21T03:30:22;21.76;58.84
76857;DHT22;69705;44.686;37.628;2023-08-21T03:32:49;21.82;58.17
76857;DHT22;69705;44.686;37.628;2023-08-21T03:35:15;21.89;58.30
76857;DHT22;69705;44.686;37.628;2023-08-21T03:37:42;21.97;58.41
76857;DHT22;69705;44.686;37.628;2023-08-21T03:40:12;21.98;58.54
76857;DHT22;69705;44.686;37.628;2023-08-21T03:42:40;22.07;58.38
76857;DHT22;69705;44.686;37.628;2023-08-21T03:45:09;22.12;58.93
76857;DHT22;69705;44.686;37.628;2023-08-21T03:47:36;22.20;58.61
76857;DHT22;69705;44.686;37.628;2023-08-21T03:50:08;22.29;58.15
76857;DHT22;69705;44.686;37.628;2023-08-21T03:52:36;22.41;56.83
76857;DHT22;69705;44.686;37.628;2023-08-21T03:55:03;22.77;55.03
76857;DHT22;69705;44.686;37.628;2023-08-21T03:57:30;23.34;51.88
76857;DHT22;69705;44.686;37.628;2023-08-21T03:59:56;23.56;52.52
76857;DHT22;69705;44.686;37.628;2023-08-21T04:02:25;23.61;54.59
76857;DHT22;69705;44.686;37.628;2023-08-21T04:04:52;23.66;55.13
76857;DHT22;69705;44.686;37.628;2023-08-21T04:07:19;23.75;52.89
76857;DHT22;69705;44.686;37.628;2023-08-21T04:09:46;23.88;53.67
76857;DHT22;69705;44.686;37.628;2023-08-21T04:12:12;23.96;54.81
76857;DHT22;69705;44.686;37.628;2023-08-21T04:14:39;24.00;52.91
76857;DHT22;69705;44.686;37.628;2023-08-21T04:17:06;24.09;54.57
76857;DHT22;69705;44.686;37.628;2023-08-21T04:19:33;24.19;53.53
76857;DHT22;69705;44.686;37.628;2023-08-21T04:22:02;24.36;53.72
76857;DHT22;69705;44.686;37.628;2023-08-21T04:24:29;24.49;54.06
76857;DHT22;69705;44.686;37.628;2023-08-21T04:26:56;24.69;54.97
76857;DHT22;69705;44.686;37.628;2023-08-21T04:29:23;24.79;54.91
76857;DHT22;69705;44.686;37.628;2023-08-21T04:31:50;24.94;55.52
76857;DHT22;69705;44.686;37.628;2023-08-21T04:34:16;25.13;55.72
76857;DHT22;69705;44.686;37.628;2023-08-21T04:36:44;25.24;56.10
76857;DHT22;69705;44.686;37.628;2023-08-21T04:39:11;25.34;56.28
76857;DHT22;69705;44.686;37.628;2023-08-21T04:41:40;25.54;57.11
76857;DHT22;69705;44.686;37.628;2023-08-21T04:44:07;25.75;57.06
76857;DHT22;69705;44.686;37.628;2023-08-21T04:46:34;25.92;58.35
76857;DHT22;69705;44.686;37.628;2023-08-21T04:49:00;26.12;58.98
76857;DHT22;69705;44.686;37.628;2023-08-21T04:51:27;26.24;60.32
76857;DHT22;69705;44.686;37.628;2023-08-21T04:53:54;26.38;60.22
76857;DHT22;69705;44.686;37.628;2023-08-21T04:56:23;26.56;61.31
76857;DHT22;69705;44.686;37.628;2023-08-21T04:58:49;26.73;70.30
76857;DHT22;69705;44.686;37.628;2023-08-21T05:01:19;26.87;72.91
76857;DHT22;69705;44.686;37.628;2023-08-21T05:03:49;27.00;73.34
76857;DHT22;69705;44.686;37.628;2023-08-21T05:06:18;27.13;72.69
76857;DHT22;69705;44.686;37.628;2023-08-21T05:08:45;27.27;73.06
76857;DHT22;69705;44.686;37.628;2023-08-21T05:11:12;27.41;72.47
76857;DHT22;69705;44.686;37.628;2023-08-21T05:13:42;27.57;64.80
76857;DHT22;69705;44.686;37.628;2023-08-21T05:16:11;27.73;62.79
76857;DHT22;69705;44.686;37.628;2023-08-21T05:18:40;27.86;60.78
76857;DHT22;69705;44.686;37.628;2023-08-21T05:21:07;28.12;59.04
76857;DHT22;69705;44.686;37.628;2023-08-21T05:23:34;28.28;64.76
76857;DHT22;69705;44.686;37.628;2023-08-21T05:26:07;28.38;57.48
76857;DHT22;69705;44.686;37.628;2023-08-21T05:28:34;28.48;57.58
76857;DHT22;69705;44.686;37.628;2023-08-21T05:31:01;28.55;60.50
76857;DHT22;69705;44.686;37.628;2023-08-21T05:33:35;28.65;54.18
76857;DHT22;69705;44.686;37.628;2023-08-21T05:36:01;28.79;59.35
76857;DHT22;69705;44.686;37.628;2023-08-21T05:38:28;28.88;58.44
76857;DHT22;69705;44.686;37.628;2023-08-21T05:40:56;29.00;56.73
76857;DHT22;69705;44.686;37.628;2023-08-21T05:43:24;29.09;65.11
76857;DHT22;69705;44.686;37.628;2023-08-21T05:45:51;29.19;69.12
76857;DHT22;69705;44.686;37.628;2023-08-21T05:48:18;29.26;68.91
76857;DHT22;69705;44.686;37.628;2023-08-21T05:50:45;29.32;67.65
76857;DHT22;69705;44.686;37.628;2023-08-21T05:53:22;29.36;62.70
76857;DHT22;69705;44.686;37.628;2023-08-21T05:55:48;29.45;68.66
76857;DHT22;69705;44.686;37.628;2023-08-21T05:58:15;29.53;70.43
76857;DHT22;69705;44.686;37.628;2023-08-21T06:00:43;29.59;68.71
76857;DHT22;69705;44.686;37.628;2023-08-21T06:03:10;29.61;70.98
76857;DHT22;69705;44.686;37.628;2023-08-21T06:05:57;29.71;71.73
76857;DHT22;69705;44.686;37.628;2023-08-21T06:08:24;29.76;70.03
76857;DHT22;69705;44.686;37.628;2023-08-21T06:10:51;29.75;71.49
76857;DHT22;69705;44.686;37.628;2023-08-21T06:13:19;29.80;70.74
76857;DHT22;69705;44.686;37.628;2023-08-21T06:15:48;29.86;70.10
76857;DHT22;69705;44.686;37.628;2023-08-21T06:18:15;29.87;70.15
76857;DHT22;69705;44.686;37.628;2023-08-21T06:20:42;29.93;70.55
76857;DHT22;69705;44.686;37.628;2023-08-21T06:23:10;29.97;71.13
76857;DHT22;69705;44.686;37.628;2023-08-21T06:25:37;30.01;69.80
76857;DHT22;69705;44.686;37.628;2023-08-21T06:28:04;30.05;67.88
76857;DHT22;69705;44.686;37.628;2023-08-21T06:30:32;30.08;69.69
76857;DHT22;69705;44.686;37.628;2023-08-21T06:32:59;30.18;69.58
76857;DHT22;69705;44.686;37.628;2023-08-21T06:35:26;30.26;68.16
76857;DHT22;69705;44.686;37.628;2023-08-21T06:37:53;30.32;67.07
76857;DHT22;69705;44.686;37.628;2023-08-21T06:40:20;30.51;41.49
76857;DHT22;69705;44.686;37.628;2023-08-21T06:42:47;30.77;42.66
76857;DHT22;69705;44.686;37.628;2023-08-21T06:45:20;30.94;37.72
76857;DHT22;69705;44.686;37.628;2023-08-21T06:47:47;31.19;37.98
76857;DHT22;69705;44.686;37.628;2023-08-21T06:50:13;31.37;37.78
76857;DHT22;69705;44.686;37.628;2023-08-21T06:52:40;31.58;34.87
76857;DHT22;69705;44.686;37.628;2023-08-21T06:55:07;31.78;35.15
76857;DHT22;69705;44.686;37.628;2023-08-21T06:57:33;31.84;35.09
76857;DHT22;69705;44.686;37.628;2023-08-21T07:00:00;31.99;33.73
76857;DHT22;69705;44.686;37.628;2023-08-21T07:02:27;32.18;33.57
76857;DHT22;69705;44.686;37.628;2023-08-21T07:04:53;32.45;30.29
76857;DHT22;69705;44.686;37.628;2023-08-21T07:07:20;32.61;52.78
76857;DHT22;69705;44.686;37.628;2023-08-21T07:09:47;32.41;50.76
76857;DHT22;69705;44.686;37.628;2023-08-21T07:12:13;32.53;36.59
76857;DHT22;69705;44.686;37.628;2023-08-21T07:14:40;32.49;57.39
76857;DHT22;69705;44.686;37.628;2023-08-21T07:17:07;32.37;59.90
76857;DHT22;69705;44.686;37.628;2023-08-21T07:19:33;32.29;60.44
76857;DHT22;69705;44.686;37.628;2023-08-21T07:22:00;32.12;62.76
76857;DHT22;69705;44.686;37.628;2023-08-21T07:24:27;31.94;62.51
76857;DHT22;69705;44.686;37.628;2023-08-21T07:26:53;31.75;61.67
76857;DHT22;69705;44.686;37.628;2023-08-21T07:29:20;31.81;63.11
76857;DHT22;69705;44.686;37.628;2023-08-21T07:31:46;31.82;63.22
76857;DHT22;69705;44.686;37.628;2023-08-21T07:34:13;31.83;62.91
76857;DHT22;69705;44.686;37.628;2023-08-21T07:36:40;31.82;61.63
76857;DHT22;69705;44.686;37.628;2023-08-21T07:39:06;31.94;59.79
76857;DHT22;69705;44.686;37.628;2023-08-21T07:41:33;32.16;52.82
76857;DHT22;69705;44.686;37.628;2023-08-21T07:44:00;32.33;57.13
76857;DHT22;69705;44.686;37.628;2023-08-21T07:46:32;32.32;60.72
76857;DHT22;69705;44.686;37.628;2023-08-21T07:48:58;32.39;57.39
76857;DHT22;69705;44.686;37.628;2023-08-21T07:51:25;32.54;56.17
76857;DHT22;69705;44.686;37.628;2023-08-21T07:53:52;32.66;58.15
76857;DHT22;69705;44.686;37.628;2023-08-21T07:56:18;32.68;56.03
76857;DHT22;69705;44.686;37.628;2023-08-21T07:58:45;32.77;55.90
76857;DHT22;69705;44.686;37.628;2023-08-21T08:01:12;32.93;56.97
76857;DHT22;69705;44.686;37.628;2023-08-21T08:03:39;32.99;55.29
76857;DHT22;69705;44.686;37.628;2023-08-21T08:06:06;33.31;35.28
76857;DHT22;69705;44.686;37.628;2023-08-21T08:08:32;33.83;27.55
76857;DHT22;69705;44.686;37.628;2023-08-21T08:11:03;34.16;28.28
76857;DHT22;69705;44.686;37.628;2023-08-21T08:13:31;34.41;28.42
76857;DHT22;69705;44.686;37.628;2023-08-21T08:15:58;34.60;27.68
76857;DHT22;69705;44.686;37.628;2023-08-21T08:18:25;34.79;27.41
76857;DHT22;69705;44.686;37.628;2023-08-21T08:20:52;34.94;27.44
76857;DHT22;69705;44.686;37.628;2023-08-21T08:23:20;35.13;26.55
76857;DHT22;69705;44.686;37.628;2023-08-21T08:25:47;35.25;25.41
76857;DHT22;69705;44.686;37.628;2023-08-21T08:28:14;35.42;25.16
76857;DHT22;69705;44.686;37.628;2023-08-21T08:30:41;35.57;25.04
76857;DHT22;69705;44.686;37.628;2023-08-21T08:33:07;35.79;23.96
76857;DHT22;69705;44.686;37.628;2023-08-21T08:35:34;35.98;23.56
76857;DHT22;69705;44.686;37.628;2023-08-21T08:38:01;36.14;22.38
76857;DHT22;69705;44.686;37.628;2023-08-21T08:40:29;36.28;24.44
76857;DHT22;69705;44.686;37.628;2023-08-21T08:42:56;36.28;21.26
76857;DHT22;69705;44.686;37.628;2023-08-21T08:45:29;36.46;22.96
76857;DHT22;69705;44.686;37.628;2023-08-21T08:48:00;36.60;22.04
76857;DHT22;69705;44.686;37.628;2023-08-21T08:50:29;36.73;21.99
76857;DHT22;69705;44.686;37.628;2023-08-21T08:52:58;36.89;21.08
76857;DHT22;69705;44.686;37.628;2023-08-21T08:55:30;37.01;22.24
76857;DHT22;69705;44.686;37.628;2023-08-21T08:58:02;37.13;20.56
76857;DHT22;69705;44.686;37.628;2023-08-21T09:00:29;37.27;20.25
76857;DHT22;69705;44.686;37.628;2023-08-21T09:02:56;37.37;20.87
76857;DHT22;69705;44.686;37.628;2023-08-21T09:05:23;37.55;20.47
76857;DHT22;69705;44.686;37.628;2023-08-21T09:10:36;37.77;20.95
76857;DHT22;69705;44.686;37.628;2023-08-21T09:13:18;37.93;21.23
76857;DHT22;69705;44.686;37.628;2023-08-21T09:15:46;37.52;38.26
76857;DHT22;69705;44.686;37.628;2023-08-21T09:18:16;37.34;38.24
76857;DHT22;69705;44.686;37.628;2023-08-21T09:20:43;37.19;37.75
76857;DHT22;69705;44.686;37.628;2023-08-21T09:23:14;37.17;23.80
76857;DHT22;69705;44.686;37.628;2023-08-21T09:25:41;37.21;30.00
76857;DHT22;69705;44.686;37.628;2023-08-21T09:28:10;37.25;30.61
76857;DHT22;69705;44.686;37.628;2023-08-21T09:30:49;37.10;41.62
76857;DHT22;69705;44.686;37.628;2023-08-21T09:33:20;36.97;43.78
76857;DHT22;69705;44.686;37.628;2023-08-21T09:35:48;36.73;45.99
76857;DHT22;69705;44.686;37.628;2023-08-21T09:38:15;36.34;53.15
76857;DHT22;69705;44.686;37.628;2023-08-21T09:40:44;36.02;50.47
76857;DHT22;69705;44.686;37.628;2023-08-21T09:43:17;35.89;56.45
76857;DHT22;69705;44.686;37.628;2023-08-21T09:45:49;35.55;57.76
76857;DHT22;69705;44.686;37.628;2023-08-21T09:48:22;34.91;60.51
76857;DHT22;69705;44.686;37.628;2023-08-21T09:50:51;34.59;61.70
76857;DHT22;69705;44.686;37.628;2023-08-21T09:53:18;34.50;62.48
76857;DHT22;69705;44.686;37.628;2023-08-21T09:55:46;34.61;62.32
76857;DHT22;69705;44.686;37.628;2023-08-21T09:58:13;34.68;61.98
76857;DHT22;69705;44.686;37.628;2023-08-21T10:00:41;34.69;61.65
76857;DHT22;69705;44.686;37.628;2023-08-21T10:03:09;34.53;62.88
76857;DHT22;69705;44.686;37.628;2023-08-21T10:05:37;34.50;61.79
76857;DHT22;69705;44.686;37.628;2023-08-21T10:08:07;34.30;62.97
76857;DHT22;69705;44.686;37.628;2023-08-21T10:10:35;34.37;63.18
76857;DHT22;69705;44.686;37.628;2023-08-21T10:13:03;34.17;63.45
76857;DHT22;69705;44.686;37.628;2023-08-21T10:15:34;34.25;63.30
76857;DHT22;69705;44.686;37.628;2023-08-21T10:18:19;34.53;62.32
76857;DHT22;69705;44.686;37.628;2023-08-21T10:20:47;34.51;62.23
76857;DHT22;69705;44.686;37.628;2023-08-21T10:23:25;34.10;63.84
76857;DHT22;69705;44.686;37.628;2023-08-21T10:25:56;33.93;64.47
76857;DHT22;69705;44.686;37.628;2023-08-21T10:28:23;34.12;63.77
76857;DHT22;69705;44.686;37.628;2023-08-21T10:30:50;34.25;62.18
76857;DHT22;69705;44.686;37.628;2023-08-21T10:33:47;34.34;62.60
76857;DHT22;69705;44.686;37.628;2023-08-21T10:36:14;34.45;61.15
76857;DHT22;69705;44.686;37.628;2023-08-21T10:38:59;34.47;62.12
76857;DHT22;69705;44.686;37.628;2023-08-21T10:41:30;34.48;61.60
76857;DHT22;69705;44.686;37.628;2023-08-21T10:43:57;34.42;62.29
76857;DHT22;69705;44.686;37.628;2023-08-21T10:46:25;34.26;62.92
76857;DHT22;69705;44.686;37.628;2023-08-21T10:48:51;34.25;63.48
76857;DHT22;69705;44.686;37.628;2023-08-21T10:51:18;33.94;64.32
76857;DHT22;69705;44.686;37.628;2023-08-21T10:53:45;33.75;64.93
76857;DHT22;69705;44.686;37.628;2023-08-21T10:56:12;33.76;64.02
76857;DHT22;69705;44.686;37.628;2023-08-21T10:58:41;33.73;63.98
76857;DHT22;69705;44.686;37.628;2023-08-21T11:01:09;33.92;63.71
76857;DHT22;69705;44.686;37.628;2023-08-21T11:03:40;33.92;63.56
76857;DHT22;69705;44.686;37.628;2023-08-21T11:06:09;33.87;63.76
76857;DHT22;69705;44.686;37.628;2023-08-21T11:08:37;34.03;63.01
76857;DHT22;69705;44.686;37.628;2023-08-21T11:11:05;34.15;62.48
76857;DHT22;69705;44.686;37.628;2023-08-21T11:13:32;33.96;63.11
76857;DHT22;69705;44.686;37.628;2023-08-21T11:16:04;34.22;62.39
76857;DHT22;69705;44.686;37.628;2023-08-21T11:18:33;34.35;62.09
76857;DHT22;69705;44.686;37.628;2023-08-21T11:21:07;34.46;62.32
76857;DHT22;69705;44.686;37.628;2023-08-21T11:23:36;34.71;60.82
76857;DHT22;69705;44.686;37.628;2023-08-21T11:26:04;34.52;61.03
76857;DHT22;69705;44.686;37.628;2023-08-21T11:28:32;34.51;62.22
76857;DHT22;69705;44.686;37.628;2023-08-21T11:30:59;34.60;61.68
76857;DHT22;69705;44.686;37.628;2023-08-21T11:33:27;34.63;61.47
76857;DHT22;69705;44.686;37.628;2023-08-21T11:35:55;34.60;61.40
76857;DHT22;69705;44.686;37.628;2023-08-21T11:38:25;34.37;62.25
76857;DHT22;69705;44.686;37.628;2023-08-21T11:41:00;34.38;62.33
76857;DHT22;69705;44.686;37.628;2023-08-21T11:43:41;34.24;62.67
76857;DHT22;69705;44.686;37.628;2023-08-21T11:46:10;34.29;61.98
76857;DHT22;69705;44.686;37.628;2023-08-21T11:48:40;34.37;61.92
76857;DHT22;69705;44.686;37.628;2023-08-21T11:51:08;34.61;61.53
76857;DHT22;69705;44.686;37.628;2023-08-21T11:53:42;34.52;61.29
76857;DHT22;69705;44.686;37.628;2023-08-21T11:56:11;34.68;60.76
76857;DHT22;69705;44.686;37.628;2023-08-21T11:58:42;34.62;61.59
76857;DHT22;69705;44.686;37.628;2023-08-21T12:01:10;34.55;61.61
76857;DHT22;69705;44.686;37.628;2023-08-21T12:03:44;34.36;62.13
76857;DHT22;69705;44.686;37.628;2023-08-21T12:06:12;34.42;61.55
76857;DHT22;69705;44.686;37.628;2023-08-21T12:08:39;34.41;61.75
76857;DHT22;69705;44.686;37.628;2023-08-21T12:11:06;34.49;61.31
76857;DHT22;69705;44.686;37.628;2023-08-21T12:13:34;34.31;61.96
76857;DHT22;69705;44.686;37.628;2023-08-21T12:16:01;34.26;61.81
76857;DHT22;69705;44.686;37.628;2023-08-21T12:18:28;34.37;61.89
76857;DHT22;69705;44.686;37.628;2023-08-21T12:20:55;34.34;61.52
76857;DHT22;69705;44.686;37.628;2023-08-21T12:23:22;34.31;62.27
76857;DHT22;69705;44.686;37.628;2023-08-21T12:25:49;34.30;61.90
76857;DHT22;69705;44.686;37.628;2023-08-21T12:28:16;34.54;61.79
76857;DHT22;69705;44.686;37.628;2023-08-21T12:30:43;34.62;61.58
76857;DHT22;69705;44.686;37.628;2023-08-21T12:33:10;34.63;61.51
76857;DHT22;69705;44.686;37.628;2023-08-21T12:35:37;34.56;61.51
76857;DHT22;69705;44.686;37.628;2023-08-21T12:38:10;34.59;61.59
76857;DHT22;69705;44.686;37.628;2023-08-21T12:40:39;34.52;61.41
76857;DHT22;69705;44.686;37.628;2023-08-21T12:43:12;34.45;61.30
76857;DHT22;69705;44.686;37.628;2023-08-21T12:45:39;34.42;61.54
76857;DHT22;69705;44.686;37.628;2023-08-21T12:48:06;34.39;61.93
76857;DHT22;69705;44.686;37.628;2023-08-21T12:50:33;34.18;62.35
76857;DHT22;69705;44.686;37.628;2023-08-21T12:53:00;34.17;62.24
76857;DHT22;69705;44.686;37.628;2023-08-21T12:55:28;34.07;62.48
76857;DHT22;69705;44.686;37.628;2023-08-21T12:57:56;34.11;62.47
76857;DHT22;69705;44.686;37.628;2023-08-21T13:00:23;34.02;63.29
76857;DHT22;69705;44.686;37.628;2023-08-21T13:02:51;33.89;63.47
76857;DHT22;69705;44.686;37.628;2023-08-21T13:05:18;33.78;63.87
76857;DHT22;69705;44.686;37.628;2023-08-21T13:07:46;33.70;64.75
76857;DHT22;69705;44.686;37.628;2023-08-21T13:10:13;33.56;64.96
76857;DHT22;69705;44.686;37.628;2023-08-21T13:12:39;33.73;64.34
76857;DHT22;69705;44.686;37.628;2023-08-21T13:15:06;33.75;63.73
76857;DHT22;69705;44.686;37.628;2023-08-21T13:17:36;33.65;63.74
76857;DHT22;69705;44.686;37.628;2023-08-21T13:20:03;33.61;64.18
76857;DHT22;69705;44.686;37.628;2023-08-21T13:22:47;33.52;63.80
76857;DHT22;69705;44.686;37.628;2023-08-21T13:25:24;33.51;63.74
76857;DHT22;69705;44.686;37.628;2023-08-21T13:27:51;33.40;64.11
76857;DHT22;69705;44.686;37.628;2023-08-21T13:30:18;33.26;64.25
76857;DHT22;69705;44.686;37.628;2023-08-21T13:32:46;33.19;64.35
76857;DHT22;69705;44.686;37.628;2023-08-21T13:35:13;33.21;64.66
76857;DHT22;69705;44.686;37.628;2023-08-21T13:37:41;33.20;64.43
76857;DHT22;69705;44.686;37.628;2023-08-21T13:40:08;33.17;64.71
76857;DHT22;69705;44.686;37.628;2023-08-21T13:42:41;32.99;64.88
76857;DHT22;69705;44.686;37.628;2023-08-21T13:45:13;32.93;65.51
76857;DHT22;69705;44.686;37.628;2023-08-21T13:47:49;32.89;65.97
76857;DHT22;69705;44.686;37.628;2023-08-21T13:50:17;32.71;65.96
76857;DHT22;69705;44.686;37.628;2023-08-21T13:52:46;32.59;66.70
76857;DHT22;69705;44.686;37.628;2023-08-21T13:55:14;32.45;67.42
76857;DHT22;69705;44.686;37.628;2023-08-21T13:57:41;32.35;67.02
76857;DHT22;69705;44.686;37.628;2023-08-21T14:00:09;32.19;68.13
76857;DHT22;69705;44.686;37.628;2023-08-21T14:02:40;32.12;68.03
76857;DHT22;69705;44.686;37.628;2023-08-21T14:05:08;32.05;68.05
76857;DHT22;69705;44.686;37.628;2023-08-21T14:07:37;32.01;68.05
76857;DHT22;69705;44.686;37.628;2023-08-21T14:10:04;31.85;68.94
76857;DHT22;69705;44.686;37.628;2023-08-21T14:12:31;31.76;69.00
76857;DHT22;69705;44.686;37.628;2023-08-21T14:14:59;31.68;69.68
76857;DHT22;69705;44.686;37.628;2023-08-21T14:17:27;31.53;70.58
76857;DHT22;69705;44.686;37.628;2023-08-21T14:19:54;31.48;70.42
76857;DHT22;69705;44.686;37.628;2023-08-21T14:22:21;31.45;70.78
76857;DHT22;69705;44.686;37.628;2023-08-21T14:24:48;31.35;71.29
76857;DHT22;69705;44.686;37.628;2023-08-21T14:27:15;31.26;71.41
76857;DHT22;69705;44.686;37.628;2023-08-21T14:29:43;31.16;71.40
76857;DHT22;69705;44.686;37.628;2023-08-21T14:32:11;31.07;72.15
76857;DHT22;69705;44.686;37.628;2023-08-21T14:34:39;30.99;72.54
76857;DHT22;69705;44.686;37.628;2023-08-21T14:37:05;30.90;72.83
76857;DHT22;69705;44.686;37.628;2023-08-21T14:39:33;30.85;72.94
76857;DHT22;69705;44.686;37.628;2023-08-21T14:41:59;30.85;73.35
76857;DHT22;69705;44.686;37.628;2023-08-21T14:44:28;30.90;72.60
76857;DHT22;69705;44.686;37.628;2023-08-21T14:46:55;30.85;72.79
76857;DHT22;69705;44.686;37.628;2023-08-21T14:49:24;30.80;73.33
76857;DHT22;69705;44.686;37.628;2023-08-21T14:51:51;30.71;73.58
76857;DHT22;69705;44.686;37.628;2023-08-21T14:54:18;30.65;73.47
76857;DHT22;69705;44.686;37.628;2023-08-21T14:56:46;30.63;74.05
76857;DHT22;69705;44.686;37.628;2023-08-21T14:59:13;30.57;74.32
76857;DHT22;69705;44.686;37.628;2023-08-21T15:01:41;30.52;74.54
76857;DHT22;69705;44.686;37.628;2023-08-21T15:04:08;30.54;74.60
76857;DHT22;69705;44.686;37.628;2023-08-21T15:06:37;30.48;75.10
76857;DHT22;69705;44.686;37.628;2023-08-21T15:09:06;30.33;75.47
76857;DHT22;69705;44.686;37.628;2023-08-21T15:11:33;30.27;75.71
76857;DHT22;69705;44.686;37.628;2023-08-21T15:14:08;30.31;75.38
76857;DHT22;69705;44.686;37.628;2023-08-21T15:16:35;30.26;75.75
76857;DHT22;69705;44.686;37.628;2023-08-21T15:19:02;30.21;76.27
76857;DHT22;69705;44.686;37.628;2023-08-21T15:21:29;30.16;76.27
76857;DHT22;69705;44.686;37.628;2023-08-21T15:23:56;30.13;76.86
76857;DHT22;69705;44.686;37.628;2023-08-21T15:26:23;30.05;77.09